sensor_id;sensor_type;location;lat;lon;timestamp;P1;durP1;ratioP1;P2;durP2;ratioP2
68319;SDS011;55168;51.120;17.024;2024-03-07T00:00:00;39.8;;;23.4;;
68319;SDS011;55168;51.120;17.024;2024-03-07T00:01:00;39.8;;;23.4;;
68319;SDS011;55168;51.120;17.024;2024-03-07T00:02:00;39.8;;;26.4;;
68319;SDS011;55168;51.120;17.024;2024-03-07T00:03:00;39.8;;;26.4;;
68319;SDS011;55168;51.120;17.024;2024-03-07T00:04:00;39.8;;;26.4;;
68319;SDS011;55168;51.120;17.024;2024-03-07T00:05:00;39.8;;;26.4;;
68319;SDS011;55168;51.120;17.024;2024-03-07T00:06:00;39.8;;;26.4;;
68319;SDS011;55168;51.120;17.024;2024-03-07T00:07:00;36.0;;;21.8;;
68319;SDS011;55168;51.120;17.024;2024-03-07T00:08:00;36.0;;;21.8;;
68319;SDS011;55168;51.120;17.024;2024-03-07T00:09:00;36.0;;;21.8;;
68319;SDS011;55168;51.120;17.024;2024-03-07T00:10:00;36.0;;;21.8;;
68319;SDS011;55168;51.120;17.024;2024-03-07T00:11:00;36.0;;;21.8;;
68319;SDS011;55168;51.120;17.024;2024-03-07T00:12:02;39.9;;;24.2;;
68319;SDS011;55168;51.120;17.024;2024-03-07T00:13:00;39.9;;;24.2;;
68319;SDS011;55168;51.120;17.024;2024-03-07T00:14:00;39.9;;;24.2;;
68319;SDS011;55168;51.120;17.024;2024-03-07T00:15:00;39.9;;;24.2;;
68319;SDS011;55168;51.120;17.024;2024-03-07T00:16:00;39.9;;;24.2;;
68319;SDS011;55168;51.120;17.024;2024-03-07T00:17:00;38.5;;;24.3;;
68319;SDS011;55168;51.120;17.024;2024-03-07T00:18:00;38.5;;;24.3;;
68319;SDS011;55168;51.120;17.024;2024-03-07T00:19:00;38.5;;;24.3;;
68319;SDS011;55168;51.120;17.024;2024-03-07T00:20:00;38.5;;;24.3;;
68319;SDS011;55168;51.120;17.024;2024-03-07T00:21:00;38.5;;;24.3;;
68319;SDS011;55168;51.120;17.024;2024-03-07T00:22:00;38.8;;;25.3;;
68319;SDS011;55168;51.120;17.024;2024-03-07T00:23:00;38.8;;;25.3;;
68319;SDS011;55168;51.120;17.024;2024-03-07T00:24:00;38.8;;;25.3;;
68319;SDS011;55168;51.120;17.024;2024-03-07T00:25:00;38.8;;;25.3;;
68319;SDS011;55168;51.120;17.024;2024-03-07T00:26:00;38.8;;;25.3;;
68319;SDS011;55168;51.120;17.024;2024-03-07T00:27:00;35.4;;;25.0;;
68319;SDS011;55168;51.120;17.024;2024-03-07T00:28:00;35.4;;;25.0;;
68319;SDS011;55168;51.120;17.024;2024-03-07T00:29:00;35.4;;;25.0;;
68319;SDS011;55168;51.120;17.024;2024-03-07T00:30:00;35.4;;;25.0;;
68319;SDS011;55168;51.120;17.024;2024-03-07T00:31:00;41.1;;;25.7;;
68319;SDS011;55168;51.120;17.024;2024-03-07T00:32:00;41.1;;;25.7;;
68319;SDS011;55168;51.120;17.024;2024-03-07T00:33:00;41.1;;;25.7;;
68319;SDS011;55168;51.120;17.024;2024-03-07T00:34:00;41.1;;;25.7;;
68319;SDS011;55168;51.120;17.024;2024-03-07T00:35:00;41.1;;;25.7;;
68319;SDS011;55168;51.120;17.024;2024-03-07T00:36:00;38.6;;;24.7;;
68319;SDS011;55168;51.120;17.024;2024-03-07T00:37:00;38.6;;;24.7;;
68319;SDS011;55168;51.120;17.024;2024-03-07T00:38:00;38.6;;;24.7;;
68319;SDS011;55168;51.120;17.024;2024-03-07T00:39:00;38.6;;;24.7;;
68319;SDS011;55168;51.120;17.024;2024-03-07T00:40:00;38.6;;;24.7;;
68319;SDS011;55168;51.120;17.024;2024-03-07T00:41:00;36.3;;;24.8;;
68319;SDS011;55168;51.120;17.024;2024-03-07T00:42:00;36.3;;;24.8;;
68319;SDS011;55168;51.120;17.024;2024-03-07T00:43:00;36.3;;;24.8;;
68319;SDS011;55168;51.120;17.024;2024-03-07T00:44:00;36.3;;;24.8;;
68319;SDS011;55168;51.120;17.024;2024-03-07T00:45:00;36.3;;;24.8;;
68319;SDS011;55168;51.120;17.024;2024-03-07T00:46:00;36.6;;;24.5;;
68319;SDS011;55168;51.120;17.024;2024-03-07T00:47:00;36.6;;;24.5;;
68319;SDS011;55168;51.120;17.024;2024-03-07T00:48:00;36.6;;;24.5;;
68319;SDS011;55168;51.120;17.024;2024-03-07T00:49:00;36.6;;;24.5;;
68319;SDS011;55168;51.120;17.024;2024-03-07T00:50:00;36.6;;;24.5;;
68319;SDS011;55168;51.120;17.024;2024-03-07T00:51:00;35.7;;;24.4;;
68319;SDS011;55168;51.120;17.024;2024-03-07T00:52:00;35.7;;;24.4;;
68319;SDS011;55168;51.120;17.024;2024-03-07T00:53:00;35.7;;;24.4;;
68319;SDS011;55168;51.120;17.024;2024-03-07T00:54:00;35.7;;;24.4;;
68319;SDS011;55168;51.120;17.024;2024-03-07T00:55:00;35.7;;;24.4;;
68319;SDS011;55168;51.120;17.024;2024-03-07T00:56:00;38.9;;;25.1;;
68319;SDS011;55168;51.120;17.024;2024-03-07T00:57:00;38.9;;;25.1;;
68319;SDS011;55168;51.120;17.024;2024-03-07T00:58:00;38.9;;;25.1;;
68319;SDS011;55168;51.120;17.024;2024-03-07T00:59:00;38.9;;;25.1;;
68319;SDS011;55168;51.120;17.024;2024-03-07T01:00:00;38.9;;;25.1;;
68319;SDS011;55168;51.120;17.024;2024-03-07T01:01:00;38.8;;;24.8;;
68319;SDS011;55168;51.120;17.024;2024-03-07T01:02:00;38.8;;;24.8;;
68319;SDS011;55168;51.120;17.024;2024-03-07T01:03:00;38.8;;;24.8;;
68319;SDS011;55168;51.120;17.024;2024-03-07T01:04:00;38.8;;;24.8;;
68319;SDS011;55168;51.120;17.024;2024-03-07T01:05:00;38.8;;;24.8;;
68319;SDS011;55168;51.120;17.024;2024-03-07T01:06:00;31.3;;;20.7;;
68319;SDS011;55168;51.120;17.024;2024-03-07T01:07:00;31.3;;;20.7;;
68319;SDS011;55168;51.120;17.024;2024-03-07T01:08:00;31.3;;;20.7;;
68319;SDS011;55168;51.120;17.024;2024-03-07T01:09:00;31.3;;;20.7;;
68319;SDS011;55168;51.120;17.024;2024-03-07T01:10:00;31.3;;;20.7;;
68319;SDS011;55168;51.120;17.024;2024-03-07T01:11:00;37.9;;;22.5;;
68319;SDS011;55168;51.120;17.024;2024-03-07T01:12:00;37.9;;;22.5;;
68319;SDS011;55168;51.120;17.024;2024-03-07T01:13:00;37.9;;;22.5;;
68319;SDS011;55168;51.120;17.024;2024-03-07T01:14:00;37.9;;;22.5;;
68319;SDS011;55168;51.120;17.024;2024-03-07T01:15:00;37.9;;;22.5;;
68319;SDS011;55168;51.120;17.024;2024-03-07T01:16:00;31.5;;;22.0;;
68319;SDS011;55168;51.120;17.024;2024-03-07T01:17:00;31.5;;;22.0;;
68319;SDS011;55168;51.120;17.024;2024-03-07T01:18:00;31.5;;;22.0;;
68319;SDS011;55168;51.120;17.024;2024-03-07T01:19:00;31.5;;;22.0;;
68319;SDS011;55168;51.120;17.024;2024-03-07T01:20:00;31.5;;;22.0;;
68319;SDS011;55168;51.120;17.024;2024-03-07T01:21:02;33.3;;;21.3;;
68319;SDS011;55168;51.120;17.024;2024-03-07T01:22:00;33.3;;;21.3;;
68319;SDS011;55168;51.120;17.024;2024-03-07T01:23:00;33.3;;;21.3;;
68319;SDS011;55168;51.120;17.024;2024-03-07T01:24:01;33.3;;;21.3;;
68319;SDS011;55168;51.120;17.024;2024-03-07T01:25:00;33.3;;;21.3;;
68319;SDS011;55168;51.120;17.024;2024-03-07T01:26:00;32.6;;;21.8;;
68319;SDS011;55168;51.120;17.024;2024-03-07T01:27:00;32.6;;;21.8;;
68319;SDS011;55168;51.120;17.024;2024-03-07T01:28:00;32.6;;;21.8;;
68319;SDS011;55168;51.120;17.024;2024-03-07T01:29:00;32.6;;;21.8;;
68319;SDS011;55168;51.120;17.024;2024-03-07T01:30:00;32.6;;;21.8;;
68319;SDS011;55168;51.120;17.024;2024-03-07T01:31:00;30.4;;;19.4;;
68319;SDS011;55168;51.120;17.024;2024-03-07T01:32:00;30.4;;;19.4;;
68319;SDS011;55168;51.120;17.024;2024-03-07T01:33:00;30.4;;;19.4;;
68319;SDS011;55168;51.120;17.024;2024-03-07T01:34:00;30.4;;;19.4;;
68319;SDS011;55168;51.120;17.024;2024-03-07T01:35:00;30.4;;;19.4;;
68319;SDS011;55168;51.120;17.024;2024-03-07T01:36:00;31.8;;;21.8;;
68319;SDS011;55168;51.120;17.024;2024-03-07T01:37:00;31.8;;;21.8;;
68319;SDS011;55168;51.120;17.024;2024-03-07T01:38:00;31.8;;;21.8;;
68319;SDS011;55168;51.120;17.024;2024-03-07T01:39:00;31.8;;;21.8;;
68319;SDS011;55168;51.120;17.024;2024-03-07T01:40:00;31.8;;;21.8;;
68319;SDS011;55168;51.120;17.024;2024-03-07T01:41:00;33.7;;;21.2;;
68319;SDS011;55168;51.120;17.024;2024-03-07T01:42:00;33.7;;;21.2;;
68319;SDS011;55168;51.120;17.024;2024-03-07T01:43:02;33.7;;;21.2;;
68319;SDS011;55168;51.120;17.024;2024-03-07T01:44:00;33.7;;;21.2;;
68319;SDS011;55168;51.120;17.024;2024-03-07T01:45:00;33.7;;;21.2;;
68319;SDS011;55168;51.120;17.024;2024-03-07T01:46:00;30.1;;;18.8;;
68319;SDS011;55168;51.120;17.024;2024-03-07T01:47:00;30.1;;;18.8;;
68319;SDS011;55168;51.120;17.024;2024-03-07T01:48:00;30.1;;;18.8;;
68319;SDS011;55168;51.120;17.024;2024-03-07T01:49:00;30.1;;;18.8;;
68319;SDS011;55168;51.120;17.024;2024-03-07T01:50:00;30.1;;;18.8;;
68319;SDS011;55168;51.120;17.024;2024-03-07T01:51:00;30.8;;;20.4;;
68319;SDS011;55168;51.120;17.024;2024-03-07T01:52:01;30.8;;;20.4;;
68319;SDS011;55168;51.120;17.024;2024-03-07T01:53:00;30.8;;;20.4;;
68319;SDS011;55168;51.120;17.024;2024-03-07T01:54:00;30.8;;;20.4;;
68319;SDS011;55168;51.120;17.024;2024-03-07T01:55:00;30.8;;;20.4;;
68319;SDS011;55168;51.120;17.024;2024-03-07T01:56:02;34.3;;;21.3;;
68319;SDS011;55168;51.120;17.024;2024-03-07T01:57:01;34.3;;;21.3;;
68319;SDS011;55168;51.120;17.024;2024-03-07T01:58:02;34.3;;;21.3;;
68319;SDS011;55168;51.120;17.024;2024-03-07T01:59:01;34.3;;;21.3;;
68319;SDS011;55168;51.120;17.024;2024-03-07T02:00:01;34.3;;;21.3;;
68319;SDS011;55168;51.120;17.024;2024-03-07T02:01:00;33.1;;;22.1;;
68319;SDS011;55168;51.120;17.024;2024-03-07T02:02:00;33.1;;;22.1;;
68319;SDS011;55168;51.120;17.024;2024-03-07T02:03:00;33.1;;;22.1;;
68319;SDS011;55168;51.120;17.024;2024-03-07T02:04:00;33.1;;;22.1;;
68319;SDS011;55168;51.120;17.024;2024-03-07T02:05:00;33.1;;;22.1;;
68319;SDS011;55168;51.120;17.024;2024-03-07T02:06:00;29.8;;;20.8;;
68319;SDS011;55168;51.120;17.024;2024-03-07T02:07:00;29.8;;;20.8;;
68319;SDS011;55168;51.120;17.024;2024-03-07T02:08:00;29.8;;;20.8;;
68319;SDS011;55168;51.120;17.024;2024-03-07T02:09:00;29.8;;;20.8;;
68319;SDS011;55168;51.120;17.024;2024-03-07T02:10:01;29.8;;;20.8;;
68319;SDS011;55168;51.120;17.024;2024-03-07T02:11:00;29.4;;;20.0;;
68319;SDS011;55168;51.120;17.024;2024-03-07T02:12:00;29.4;;;20.0;;
68319;SDS011;55168;51.120;17.024;2024-03-07T02:13:00;29.4;;;20.0;;
68319;SDS011;55168;51.120;17.024;2024-03-07T02:14:00;29.4;;;20.0;;
68319;SDS011;55168;51.120;17.024;2024-03-07T02:15:00;29.4;;;20.0;;
68319;SDS011;55168;51.120;17.024;2024-03-07T02:16:00;29.9;;;21.1;;
68319;SDS011;55168;51.120;17.024;2024-03-07T02:17:00;29.9;;;21.1;;
68319;SDS011;55168;51.120;17.024;2024-03-07T02:18:00;29.9;;;21.1;;
68319;SDS011;55168;51.120;17.024;2024-03-07T02:19:00;29.9;;;21.1;;
68319;SDS011;55168;51.120;17.024;2024-03-07T02:20:00;29.9;;;21.1;;
68319;SDS011;55168;51.120;17.024;2024-03-07T02:21:00;30.6;;;20.8;;
68319;SDS011;55168;51.120;17.024;2024-03-07T02:22:00;30.6;;;20.8;;
68319;SDS011;55168;51.120;17.024;2024-03-07T02:23:00;30.6;;;20.8;;
68319;SDS011;55168;51.120;17.024;2024-03-07T02:24:00;30.6;;;20.8;;
68319;SDS011;55168;51.120;17.024;2024-03-07T02:25:00;30.6;;;20.8;;
68319;SDS011;55168;51.120;17.024;2024-03-07T02:26:00;29.9;;;18.3;;
68319;SDS011;55168;51.120;17.024;2024-03-07T02:27:00;29.9;;;18.3;;
68319;SDS011;55168;51.120;17.024;2024-03-07T02:28:00;29.9;;;18.3;;
68319;SDS011;55168;51.120;17.024;2024-03-07T02:29:00;29.9;;;18.3;;
68319;SDS011;55168;51.120;17.024;2024-03-07T02:30:00;29.9;;;18.3;;
68319;SDS011;55168;51.120;17.024;2024-03-07T02:31:00;30.9;;;20.2;;
68319;SDS011;55168;51.120;17.024;2024-03-07T02:32:00;30.9;;;20.2;;
68319;SDS011;55168;51.120;17.024;2024-03-07T02:33:00;30.9;;;20.2;;
68319;SDS011;55168;51.120;17.024;2024-03-07T02:34:01;30.9;;;20.2;;
68319;SDS011;55168;51.120;17.024;2024-03-07T02:35:00;30.9;;;20.2;;
68319;SDS011;55168;51.120;17.024;2024-03-07T02:36:00;29.6;;;19.9;;
68319;SDS011;55168;51.120;17.024;2024-03-07T02:37:00;29.6;;;19.9;;
68319;SDS011;55168;51.120;17.024;2024-03-07T02:38:00;29.6;;;19.9;;
68319;SDS011;55168;51.120;17.024;2024-03-07T02:39:00;29.6;;;19.9;;
68319;SDS011;55168;51.120;17.024;2024-03-07T02:40:00;29.6;;;19.9;;
68319;SDS011;55168;51.120;17.024;2024-03-07T02:41:00;29.6;;;20.3;;
68319;SDS011;55168;51.120;17.024;2024-03-07T02:42:00;29.6;;;20.3;;
68319;SDS011;55168;51.120;17.024;2024-03-07T02:43:00;29.6;;;20.3;;
68319;SDS011;55168;51.120;17.024;2024-03-07T02:44:00;29.6;;;20.3;;
68319;SDS011;55168;51.120;17.024;2024-03-07T02:45:00;29.6;;;20.3;;
68319;SDS011;55168;51.120;17.024;2024-03-07T02:46:00;30.0;;;20.6;;
68319;SDS011;55168;51.120;17.024;2024-03-07T02:47:00;30.0;;;20.6;;
68319;SDS011;55168;51.120;17.024;2024-03-07T02:48:00;30.0;;;20.6;;
68319;SDS011;55168;51.120;17.024;2024-03-07T02:49:00;30.0;;;20.6;;
68319;SDS011;55168;51.120;17.024;2024-03-07T02:50:00;30.0;;;20.6;;
68319;SDS011;55168;51.120;17.024;2024-03-07T02:51:00;30.1;;;19.5;;
68319;SDS011;55168;51.120;17.024;2024-03-07T02:52:00;30.1;;;19.5;;
68319;SDS011;55168;51.120;17.024;2024-03-07T02:53:00;30.1;;;19.5;;
68319;SDS011;55168;51.120;17.024;2024-03-07T02:54:00;30.1;;;19.5;;
68319;SDS011;55168;51.120;17.024;2024-03-07T02:55:00;30.1;;;19.5;;
68319;SDS011;55168;51.120;17.024;2024-03-07T02:56:00;27.3;;;19.9;;
68319;SDS011;55168;51.120;17.024;2024-03-07T02:57:00;27.3;;;19.9;;
68319;SDS011;55168;51.120;17.024;2024-03-07T02:58:00;27.3;;;19.9;;
68319;SDS011;55168;51.120;17.024;2024-03-07T02:59:00;27.3;;;19.9;;
68319;SDS011;55168;51.120;17.024;2024-03-07T03:00:00;27.3;;;19.9;;
68319;SDS011;55168;51.120;17.024;2024-03-07T03:01:00;29.2;;;19.8;;
68319;SDS011;55168;51.120;17.024;2024-03-07T03:02:00;29.2;;;19.8;;
68319;SDS011;55168;51.120;17.024;2024-03-07T03:03:00;29.2;;;19.8;;
68319;SDS011;55168;51.120;17.024;2024-03-07T03:04:00;29.2;;;19.8;;
68319;SDS011;55168;51.120;17.024;2024-03-07T03:05:00;29.2;;;19.8;;
68319;SDS011;55168;51.120;17.024;2024-03-07T03:06:00;29.3;;;20.3;;
68319;SDS011;55168;51.120;17.024;2024-03-07T03:07:00;29.3;;;20.3;;
68319;SDS011;55168;51.120;17.024;2024-03-07T03:08:00;29.3;;;20.3;;
68319;SDS011;55168;51.120;17.024;2024-03-07T03:09:00;29.3;;;20.3;;
68319;SDS011;55168;51.120;17.024;2024-03-07T03:10:00;29.3;;;20.3;;
68319;SDS011;55168;51.120;17.024;2024-03-07T03:11:01;28.7;;;19.6;;
68319;SDS011;55168;51.120;17.024;2024-03-07T03:12:00;28.7;;;19.6;;
68319;SDS011;55168;51.120;17.024;2024-03-07T03:13:00;28.7;;;19.6;;
68319;SDS011;55168;51.120;17.024;2024-03-07T03:14:00;28.7;;;19.6;;
68319;SDS011;55168;51.120;17.024;2024-03-07T03:15:00;28.7;;;19.6;;
68319;SDS011;55168;51.120;17.024;2024-03-07T03:16:00;30.6;;;20.6;;
68319;SDS011;55168;51.120;17.024;2024-03-07T03:17:00;30.6;;;20.6;;
68319;SDS011;55168;51.120;17.024;2024-03-07T03:18:00;30.6;;;20.6;;
68319;SDS011;55168;51.120;17.024;2024-03-07T03:19:00;30.6;;;20.6;;
68319;SDS011;55168;51.120;17.024;2024-03-07T03:20:00;30.6;;;20.6;;
68319;SDS011;55168;51.120;17.024;2024-03-07T03:21:00;29.7;;;18.6;;
68319;SDS011;55168;51.120;17.024;2024-03-07T03:22:00;29.7;;;18.6;;
68319;SDS011;55168;51.120;17.024;2024-03-07T03:23:01;29.7;;;18.6;;
68319;SDS011;55168;51.120;17.024;2024-03-07T03:24:00;29.7;;;18.6;;
68319;SDS011;55168;51.120;17.024;2024-03-07T03:25:00;29.7;;;18.6;;
68319;SDS011;55168;51.120;17.024;2024-03-07T03:26:00;29.1;;;19.2;;
68319;SDS011;55168;51.120;17.024;2024-03-07T03:27:00;29.1;;;19.2;;
68319;SDS011;55168;51.120;17.024;2024-03-07T03:28:00;29.1;;;19.2;;
68319;SDS011;55168;51.120;17.024;2024-03-07T03:29:00;29.1;;;19.2;;
68319;SDS011;55168;51.120;17.024;2024-03-07T03:31:00;30.4;;;19.9;;
68319;SDS011;55168;51.120;17.024;2024-03-07T03:32:00;30.4;;;19.9;;
68319;SDS011;55168;51.120;17.024;2024-03-07T03:33:00;30.4;;;19.9;;
68319;SDS011;55168;51.120;17.024;2024-03-07T03:34:00;30.4;;;19.9;;
68319;SDS011;55168;51.120;17.024;2024-03-07T03:35:00;30.4;;;19.9;;
68319;SDS011;55168;51.120;17.024;2024-03-07T03:36:00;31.4;;;21.0;;
68319;SDS011;55168;51.120;17.024;2024-03-07T03:37:00;31.4;;;21.0;;
68319;SDS011;55168;51.120;17.024;2024-03-07T03:38:00;31.4;;;21.0;;
68319;SDS011;55168;51.120;17.024;2024-03-07T03:39:00;31.4;;;21.0;;
68319;SDS011;55168;51.120;17.024;2024-03-07T03:40:00;31.4;;;21.0;;
68319;SDS011;55168;51.120;17.024;2024-03-07T03:41:00;29.5;;;19.7;;
68319;SDS011;55168;51.120;17.024;2024-03-07T03:42:00;29.5;;;19.7;;
68319;SDS011;55168;51.120;17.024;2024-03-07T03:43:00;29.5;;;19.7;;
68319;SDS011;55168;51.120;17.024;2024-03-07T03:44:00;29.5;;;19.7;;
68319;SDS011;55168;51.120;17.024;2024-03-07T03:45:00;29.5;;;19.7;;
68319;SDS011;55168;51.120;17.024;2024-03-07T03:46:00;29.6;;;20.4;;
68319;SDS011;55168;51.120;17.024;2024-03-07T03:47:00;29.6;;;20.4;;
68319;SDS011;55168;51.120;17.024;2024-03-07T03:48:00;29.6;;;20.4;;
68319;SDS011;55168;51.120;17.024;2024-03-07T03:49:00;29.6;;;20.4;;
68319;SDS011;55168;51.120;17.024;2024-03-07T03:50:00;29.6;;;20.4;;
68319;SDS011;55168;51.120;17.024;2024-03-07T03:51:00;31.3;;;21.3;;
68319;SDS011;55168;51.120;17.024;2024-03-07T03:52:00;31.3;;;21.3;;
68319;SDS011;55168;51.120;17.024;2024-03-07T03:53:00;31.3;;;21.3;;
68319;SDS011;55168;51.120;17.024;2024-03-07T03:54:00;31.3;;;21.3;;
68319;SDS011;55168;51.120;17.024;2024-03-07T03:55:00;31.3;;;21.3;;
68319;SDS011;55168;51.120;17.024;2024-03-07T03:56:00;32.0;;;20.0;;
68319;SDS011;55168;51.120;17.024;2024-03-07T03:57:00;32.0;;;20.0;;
68319;SDS011;55168;51.120;17.024;2024-03-07T03:58:00;32.0;;;20.0;;
68319;SDS011;55168;51.120;17.024;2024-03-07T03:59:00;32.0;;;20.0;;
68319;SDS011;55168;51.120;17.024;2024-03-07T04:00:00;32.0;;;20.0;;
68319;SDS011;55168;51.120;17.024;2024-03-07T04:01:00;29.3;;;18.7;;
68319;SDS011;55168;51.120;17.024;2024-03-07T04:02:00;29.3;;;18.7;;
68319;SDS011;55168;51.120;17.024;2024-03-07T04:03:00;29.3;;;18.7;;
68319;SDS011;55168;51.120;17.024;2024-03-07T04:04:00;29.3;;;18.7;;
68319;SDS011;55168;51.120;17.024;2024-03-07T04:05:00;29.3;;;18.7;;
68319;SDS011;55168;51.120;17.024;2024-03-07T04:06:00;24.1;;;15.4;;
68319;SDS011;55168;51.120;17.024;2024-03-07T04:07:00;24.1;;;15.4;;
68319;SDS011;55168;51.120;17.024;2024-03-07T04:08:00;24.1;;;15.4;;
68319;SDS011;55168;51.120;17.024;2024-03-07T04:09:00;24.1;;;15.4;;
68319;SDS011;55168;51.120;17.024;2024-03-07T04:10:00;24.1;;;15.4;;
68319;SDS011;55168;51.120;17.024;2024-03-07T04:11:00;26.1;;;17.5;;
68319;SDS011;55168;51.120;17.024;2024-03-07T04:12:00;26.1;;;17.5;;
68319;SDS011;55168;51.120;17.024;2024-03-07T04:13:00;26.1;;;17.5;;
68319;SDS011;55168;51.120;17.024;2024-03-07T04:14:00;26.1;;;17.5;;
68319;SDS011;55168;51.120;17.024;2024-03-07T04:15:00;26.1;;;17.5;;
68319;SDS011;55168;51.120;17.024;2024-03-07T04:16:00;28.5;;;19.6;;
68319;SDS011;55168;51.120;17.024;2024-03-07T04:17:00;28.5;;;19.6;;
68319;SDS011;55168;51.120;17.024;2024-03-07T04:18:00;28.5;;;19.6;;
68319;SDS011;55168;51.120;17.024;2024-03-07T04:19:00;28.5;;;19.6;;
68319;SDS011;55168;51.120;17.024;2024-03-07T04:20:00;28.5;;;19.6;;
68319;SDS011;55168;51.120;17.024;2024-03-07T04:21:00;30.7;;;21.3;;
68319;SDS011;55168;51.120;17.024;2024-03-07T04:22:01;30.7;;;21.3;;
68319;SDS011;55168;51.120;17.024;2024-03-07T04:23:00;30.7;;;21.3;;
68319;SDS011;55168;51.120;17.024;2024-03-07T04:24:00;30.7;;;21.3;;
68319;SDS011;55168;51.120;17.024;2024-03-07T04:25:02;30.7;;;21.3;;
68319;SDS011;55168;51.120;17.024;2024-03-07T04:26:00;29.4;;;21.1;;
68319;SDS011;55168;51.120;17.024;2024-03-07T04:27:00;29.4;;;21.1;;
68319;SDS011;55168;51.120;17.024;2024-03-07T04:28:00;29.4;;;21.1;;
68319;SDS011;55168;51.120;17.024;2024-03-07T04:29:00;29.4;;;21.1;;
68319;SDS011;55168;51.120;17.024;2024-03-07T04:30:00;29.4;;;21.1;;
68319;SDS011;55168;51.120;17.024;2024-03-07T04:31:00;32.1;;;21.0;;
68319;SDS011;55168;51.120;17.024;2024-03-07T04:32:01;32.1;;;21.0;;
68319;SDS011;55168;51.120;17.024;2024-03-07T04:33:00;32.1;;;21.0;;
68319;SDS011;55168;51.120;17.024;2024-03-07T04:34:00;32.1;;;21.0;;
68319;SDS011;55168;51.120;17.024;2024-03-07T04:35:00;32.1;;;21.0;;
68319;SDS011;55168;51.120;17.024;2024-03-07T04:36:00;31.3;;;21.4;;
68319;SDS011;55168;51.120;17.024;2024-03-07T04:37:00;31.3;;;21.4;;
68319;SDS011;55168;51.120;17.024;2024-03-07T04:38:00;31.3;;;21.4;;
68319;SDS011;55168;51.120;17.024;2024-03-07T04:39:00;31.3;;;21.4;;
68319;SDS011;55168;51.120;17.024;2024-03-07T04:40:00;31.3;;;21.4;;
68319;SDS011;55168;51.120;17.024;2024-03-07T04:41:00;31.4;;;20.8;;
68319;SDS011;55168;51.120;17.024;2024-03-07T04:42:01;31.4;;;20.8;;
68319;SDS011;55168;51.120;17.024;2024-03-07T04:43:00;31.4;;;20.8;;
68319;SDS011;55168;51.120;17.024;2024-03-07T04:44:00;31.4;;;20.8;;
68319;SDS011;55168;51.120;17.024;2024-03-07T04:45:00;31.4;;;20.8;;
68319;SDS011;55168;51.120;17.024;2024-03-07T04:46:00;32.1;;;20.6;;
68319;SDS011;55168;51.120;17.024;2024-03-07T04:47:00;32.1;;;20.6;;
68319;SDS011;55168;51.120;17.024;2024-03-07T04:48:00;32.1;;;20.6;;
68319;SDS011;55168;51.120;17.024;2024-03-07T04:49:00;32.1;;;20.6;;
68319;SDS011;55168;51.120;17.024;2024-03-07T04:50:00;32.1;;;20.6;;
68319;SDS011;55168;51.120;17.024;2024-03-07T04:51:00;34.5;;;22.0;;
68319;SDS011;55168;51.120;17.024;2024-03-07T04:52:01;34.5;;;22.0;;
68319;SDS011;55168;51.120;17.024;2024-03-07T04:53:00;34.5;;;22.0;;
68319;SDS011;55168;51.120;17.024;2024-03-07T04:54:00;34.5;;;22.0;;
68319;SDS011;55168;51.120;17.024;2024-03-07T04:55:00;34.5;;;22.0;;
68319;SDS011;55168;51.120;17.024;2024-03-07T04:56:00;29.5;;;20.8;;
68319;SDS011;55168;51.120;17.024;2024-03-07T04:57:00;29.5;;;20.8;;
68319;SDS011;55168;51.120;17.024;2024-03-07T04:58:00;29.5;;;20.8;;
68319;SDS011;55168;51.120;17.024;2024-03-07T04:59:00;29.5;;;20.8;;
68319;SDS011;55168;51.120;17.024;2024-03-07T05:00:00;29.5;;;20.8;;
68319;SDS011;55168;51.120;17.024;2024-03-07T05:01:00;29.2;;;19.6;;
68319;SDS011;55168;51.120;17.024;2024-03-07T05:02:00;29.2;;;19.6;;
68319;SDS011;55168;51.120;17.024;2024-03-07T05:03:00;29.2;;;19.6;;
68319;SDS011;55168;51.120;17.024;2024-03-07T05:04:00;29.2;;;19.6;;
68319;SDS011;55168;51.120;17.024;2024-03-07T05:05:00;29.2;;;19.6;;
68319;SDS011;55168;51.120;17.024;2024-03-07T05:06:00;30.9;;;20.8;;
68319;SDS011;55168;51.120;17.024;2024-03-07T05:07:00;30.9;;;20.8;;
68319;SDS011;55168;51.120;17.024;2024-03-07T05:08:00;30.9;;;20.8;;
68319;SDS011;55168;51.120;17.024;2024-03-07T05:09:02;30.9;;;20.8;;
68319;SDS011;55168;51.120;17.024;2024-03-07T05:10:00;30.9;;;20.8;;
68319;SDS011;55168;51.120;17.024;2024-03-07T05:11:00;29.4;;;19.0;;
68319;SDS011;55168;51.120;17.024;2024-03-07T05:12:00;29.4;;;19.0;;
68319;SDS011;55168;51.120;17.024;2024-03-07T05:13:00;29.4;;;19.0;;
68319;SDS011;55168;51.120;17.024;2024-03-07T05:14:00;29.4;;;19.0;;
68319;SDS011;55168;51.120;17.024;2024-03-07T05:15:00;29.4;;;19.0;;
68319;SDS011;55168;51.120;17.024;2024-03-07T05:16:00;31.7;;;21.6;;
68319;SDS011;55168;51.120;17.024;2024-03-07T05:17:00;31.7;;;21.6;;
68319;SDS011;55168;51.120;17.024;2024-03-07T05:18:00;31.7;;;21.6;;
68319;SDS011;55168;51.120;17.024;2024-03-07T05:19:00;31.7;;;21.6;;
68319;SDS011;55168;51.120;17.024;2024-03-07T05:20:00;31.7;;;21.6;;
68319;SDS011;55168;51.120;17.024;2024-03-07T05:21:00;30.7;;;19.1;;
68319;SDS011;55168;51.120;17.024;2024-03-07T05:22:01;30.7;;;19.1;;
68319;SDS011;55168;51.120;17.024;2024-03-07T05:23:00;30.7;;;19.1;;
68319;SDS011;55168;51.120;17.024;2024-03-07T05:24:00;30.7;;;19.1;;
68319;SDS011;55168;51.120;17.024;2024-03-07T05:25:00;30.7;;;19.1;;
68319;SDS011;55168;51.120;17.024;2024-03-07T05:26:00;30.8;;;21.2;;
68319;SDS011;55168;51.120;17.024;2024-03-07T05:27:00;30.8;;;21.2;;
68319;SDS011;55168;51.120;17.024;2024-03-07T05:28:00;30.8;;;21.2;;
68319;SDS011;55168;51.120;17.024;2024-03-07T05:29:01;30.8;;;21.2;;
68319;SDS011;55168;51.120;17.024;2024-03-07T05:30:00;30.8;;;21.2;;
68319;SDS011;55168;51.120;17.024;2024-03-07T05:31:00;32.4;;;21.9;;
68319;SDS011;55168;51.120;17.024;2024-03-07T05:32:19;32.4;;;21.9;;
68319;SDS011;55168;51.120;17.024;2024-03-07T05:33:00;32.4;;;21.9;;
68319;SDS011;55168;51.120;17.024;2024-03-07T05:34:01;32.4;;;21.9;;
68319;SDS011;55168;51.120;17.024;2024-03-07T05:35:00;32.4;;;21.9;;
68319;SDS011;55168;51.120;17.024;2024-03-07T05:36:00;30.1;;;21.1;;
68319;SDS011;55168;51.120;17.024;2024-03-07T05:37:00;30.1;;;21.1;;
68319;SDS011;55168;51.120;17.024;2024-03-07T05:38:00;30.1;;;21.1;;
68319;SDS011;55168;51.120;17.024;2024-03-07T05:39:00;30.1;;;21.1;;
68319;SDS011;55168;51.120;17.024;2024-03-07T05:40:00;30.1;;;21.1;;
68319;SDS011;55168;51.120;17.024;2024-03-07T05:41:00;29.8;;;20.5;;
68319;SDS011;55168;51.120;17.024;2024-03-07T05:42:00;29.8;;;20.5;;
68319;SDS011;55168;51.120;17.024;2024-03-07T05:43:00;29.8;;;20.5;;
68319;SDS011;55168;51.120;17.024;2024-03-07T05:44:00;29.8;;;20.5;;
68319;SDS011;55168;51.120;17.024;2024-03-07T05:45:00;29.8;;;20.5;;
68319;SDS011;55168;51.120;17.024;2024-03-07T05:46:00;33.5;;;21.2;;
68319;SDS011;55168;51.120;17.024;2024-03-07T05:47:00;33.5;;;21.2;;
68319;SDS011;55168;51.120;17.024;2024-03-07T05:48:14;33.5;;;21.2;;
68319;SDS011;55168;51.120;17.024;2024-03-07T05:49:00;33.5;;;21.2;;
68319;SDS011;55168;51.120;17.024;2024-03-07T05:50:00;33.5;;;21.2;;
68319;SDS011;55168;51.120;17.024;2024-03-07T05:51:00;32.0;;;21.3;;
68319;SDS011;55168;51.120;17.024;2024-03-07T05:52:00;32.0;;;21.3;;
68319;SDS011;55168;51.120;17.024;2024-03-07T05:53:00;32.0;;;21.3;;
68319;SDS011;55168;51.120;17.024;2024-03-07T05:54:00;32.0;;;21.3;;
68319;SDS011;55168;51.120;17.024;2024-03-07T05:55:00;32.0;;;21.3;;
68319;SDS011;55168;51.120;17.024;2024-03-07T05:56:00;31.3;;;21.4;;